Time;durP1;ratioP1;P1;durP2;ratioP2;P2;SDS_P1;SDS_P2;PMS_P1;PMS_P2;Temp;Humidity;BMP_temperature;BMP_pressure;BME280_temperature;BME280_humidity;BME280_pressure;Samples;Min_cycle;Max_cycle;Signal;HPM_P1;HPM_P2
2023/12/19 00:00:35;;;;;;;79.45;28.65;;;;;;;6.45;100.00;102533.53;6081497;19;20037;-74
2023/12/19 00:02:43;;;;;;;83.63;29.38;;;;;;;6.47;100.00;102523.09;6083655;19;20377;-73
2023/12/19 00:04:48;;;;;;;73.22;27.52;;;;;;;6.47;100.00;102518.72;6082089;19;20002;-75
2023/12/19 00:06:53;;;;;;;82.82;26.77;;;;;;;6.48;100.00;102514.41;6082443;19;20011;-74
2023/12/19 00:08:59;;;;;;;67.85;24.70;;;;;;;6.47;100.00;102507.41;6083594;19;20031;-73
2023/12/19 00:11:03;;;;;;;71.00;28.23;;;;;;;6.50;100.00;102494.34;6082443;19;20412;-72
2023/12/19 00:13:08;;;;;;;69.38;27.10;;;;;;;6.54;100.00;102496.13;6074132;19;20011;-71
2023/12/19 00:15:13;;;;;;;79.95;27.95;;;;;;;6.52;100.00;102488.28;6084079;19;20014;-72
2023/12/19 00:17:18;;;;;;;67.70;23.98;;;;;;;6.52;100.00;102470.00;6081050;19;20002;-73
2023/12/19 00:19:25;;;;;;;63.40;25.90;;;;;;;6.51;100.00;102465.66;6082104;19;20010;-72
2023/12/19 00:21:30;;;;;;;69.03;25.42;;;;;;;6.55;100.00;102461.28;6082999;19;20018;-72
2023/12/19 00:23:35;;;;;;;80.82;28.77;;;;;;;6.54;100.00;102475.22;6081525;19;20510;-73
2023/12/19 00:25:40;;;;;;;67.18;27.42;;;;;;;6.52;100.00;102470.00;6085520;19;20014;-73
2023/12/19 00:27:42;;;;;;;72.35;30.02;;;;;;;6.55;100.00;102466.53;6082217;19;20078;-73
2023/12/19 00:29:47;;;;;;;82.90;26.73;;;;;;;6.58;100.00;102462.19;6081090;19;20006;-74
2023/12/19 00:31:53;;;;;;;75.47;24.58;;;;;;;6.58;100.00;102471.75;6083071;19;20011;-74
2023/12/19 00:33:59;;;;;;;63.38;24.95;;;;;;;6.62;100.00;102468.28;6081220;19;20035;-73
2023/12/19 00:36:07;;;;;;;70.35;26.25;;;;;;;6.59;100.00;102453.47;6080537;19;20037;-73
2023/12/19 00:38:12;;;;;;;69.03;26.27;;;;;;;6.59;100.00;102453.47;6081695;19;20028;-73
2023/12/19 00:40:17;;;;;;;64.93;24.15;;;;;;;6.56;100.00;102450.88;6080217;19;20007;-74
2023/12/19 00:42:22;;;;;;;63.25;26.42;;;;;;;6.62;100.00;102449.13;6081156;19;20011;-75
2023/12/19 00:44:25;;;;;;;64.40;25.80;;;;;;;6.60;100.00;102454.34;6081771;19;20007;-74
2023/12/19 00:46:29;;;;;;;56.00;23.73;;;;;;;6.63;100.00;102454.34;6079656;19;20611;-74
2023/12/19 00:48:35;;;;;;;72.78;23.15;;;;;;;6.66;100.00;102445.63;6082547;19;20045;-75
2023/12/19 00:50:40;;;;;;;70.97;27.90;;;;;;;6.63;100.00;102446.50;6080144;19;20006;-74
2023/12/19 00:52:45;;;;;;;78.95;28.33;;;;;;;6.63;100.00;102448.25;6080098;19;20582;-74
2023/12/19 00:54:50;;;;;;;60.72;24.20;;;;;;;6.69;100.00;102437.81;6081742;19;20366;-74
2023/12/19 00:56:54;;;;;;;67.20;26.15;;;;;;;6.67;100.00;102436.94;6082615;19;20565;-74
2023/12/19 00:58:59;;;;;;;75.88;28.98;;;;;;;6.71;100.00;102439.53;6081150;19;20046;-75
2023/12/19 01:01:04;;;;;;;76.57;29.27;;;;;;;6.70;100.00;102427.38;6079845;19;20015;-73
2023/12/19 01:03:09;;;;;;;84.85;29.25;;;;;;;6.72;100.00;102430.00;6079399;19;20620;-73
2023/12/19 01:05:14;;;;;;;75.35;27.40;;;;;;;6.74;100.00;102426.50;6079009;19;20090;-73
2023/12/19 01:07:21;;;;;;;67.47;24.25;;;;;;;6.78;100.00;102427.38;6079670;19;20142;-72
2023/12/19 01:09:29;;;;;;;74.57;30.33;;;;;;;6.77;100.00;102420.44;6079040;19;20021;-74
2023/12/19 01:11:31;;;;;;;77.90;29.05;;;;;;;6.76;100.00;102421.28;6079442;19;20086;-74
2023/12/19 01:13:36;;;;;;;65.05;27.85;;;;;;;6.78;100.00;102415.19;6079656;19;20086;-75
2023/12/19 01:15:41;;;;;;;81.57;29.40;;;;;;;6.78;100.00;102420.41;6081866;19;20027;-74
2023/12/19 01:17:46;;;;;;;71.00;28.55;;;;;;;6.79;100.00;102419.56;6080882;19;20109;-74
2023/12/19 01:19:51;;;;;;;97.15;27.08;;;;;;;6.79;100.00;102419.56;6080834;19;20118;-75
2023/12/19 01:21:58;;;;;;;81.18;26.67;;;;;;;6.80;100.00;102420.41;6079005;19;20011;-74
2023/12/19 01:24:03;;;;;;;74.90;28.52;;;;;;;6.81;100.00;102411.69;6082561;19;20027;-73
2023/12/19 01:26:11;;;;;;;69.40;26.50;;;;;;;6.78;100.00;102416.94;6077700;19;20141;-75
2023/12/19 01:28:24;;;;;;;75.80;27.38;;;;;;;6.81;100.00;102411.69;6081452;19;20065;-75
2023/12/19 01:30:26;;;;;;;73.10;26.50;;;;;;;6.81;100.00;102414.31;6085822;19;20007;-75
2023/12/19 01:32:33;;;;;;;71.90;27.77;;;;;;;6.81;100.00;102411.69;6086003;19;20015;-74
2023/12/19 01:34:38;;;;;;;80.13;25.83;;;;;;;6.80;100.00;102409.97;6085643;19;20473;-75
2023/12/19 01:36:45;;;;;;;78.30;27.42;;;;;;;6.73;100.00;102408.22;6085905;19;20354;-75
2023/12/19 01:39:02;;;;;;;60.00;21.90;;;;;;;6.78;100.00;102414.31;6084413;19;20612;-74
2023/12/19 01:41:10;;;;;;;68.32;25.50;;;;;;;6.73;100.00;102408.22;6087150;19;20548;-73
2023/12/19 01:43:20;;;;;;;71.57;26.05;;;;;;;6.75;100.00;102416.94;6087679;19;20003;-74
2023/12/19 01:45:29;;;;;;;69.53;27.73;;;;;;;6.75;100.00;102412.56;6000825;19;2004823;-73
2023/12/19 01:47:31;;;;;;;62.63;25.50;;;;;;;6.75;100.00;102407.34;6083848;19;20015;-74
2023/12/19 01:49:36;;;;;;;58.20;23.33;;;;;;;6.80;100.00;102400.38;6088262;19;20003;-72
2023/12/19 01:51:39;;;;;;;51.70;24.23;;;;;;;6.77;100.00;102415.19;6088200;19;20014;-73
2023/12/19 01:53:47;;;;;;;71.78;25.58;;;;;;;6.81;100.00;102406.47;6082598;19;20006;-72
2023/12/19 01:55:56;;;;;;;55.83;25.10;;;;;;;6.80;100.00;102405.59;6091000;19;20457;-75
2023/12/19 01:58:03;;;;;;;69.93;25.95;;;;;;;6.79;100.00;102397.75;6090903;19;20149;-74
2023/12/19 02:00:12;;;;;;;67.13;26.38;;;;;;;6.78;100.00;102390.81;6090711;19;20604;-74
2023/12/19 02:02:16;;;;;;;59.55;25.60;;;;;;;6.76;100.00;102382.09;6086688;19;20010;-70
2023/12/19 02:04:21;;;;;;;73.78;27.92;;;;;;;6.81;100.00;102375.13;6087586;19;20535;-71
2023/12/19 02:06:25;;;;;;;67.35;25.67;;;;;;;6.85;100.00;102374.25;6089495;19;20280;-72
2023/12/19 02:08:30;;;;;;;66.38;25.70;;;;;;;6.84;100.00;102369.88;6087359;19;20371;-73
2023/12/19 02:10:35;;;;;;;54.33;23.02;;;;;;;6.85;100.00;102371.66;6089633;19;20383;-72
2023/12/19 02:12:40;;;;;;;81.63;27.55;;;;;;;6.85;100.00;102379.47;6085507;19;20041;-73
2023/12/19 02:14:50;;;;;;;77.63;28.95;;;;;;;6.84;100.00;102369.88;6086340;19;20007;-73
2023/12/19 02:16:52;;;;;;;66.85;27.55;;;;;;;6.89;100.00;102373.38;6087515;19;20835;-73
2023/12/19 02:19:04;;;;;;;58.63;23.42;;;;;;;6.91;100.00;102370.78;6087239;19;20011;-73
2023/12/19 02:21:10;;;;;;;71.20;24.97;;;;;;;6.86;100.00;102373.38;6088438;19;20033;-72
2023/12/19 02:23:18;;;;;;;69.28;24.75;;;;;;;6.86;100.00;102357.69;6088862;19;20656;-73
2023/12/19 02:25:23;;;;;;;62.42;22.52;;;;;;;6.86;100.00;102355.09;6089270;19;20013;-74
2023/12/19 02:27:28;;;;;;;57.05;25.27;;;;;;;6.87;100.00;102343.75;6084358;19;20449;-72
2023/12/19 02:29:31;;;;;;;58.95;22.85;;;;;;;6.87;100.00;102329.81;6089299;19;20024;-72
2023/12/19 02:31:36;;;;;;;60.10;23.23;;;;;;;6.92;100.00;102326.31;6089207;19;20037;-73
2023/12/19 02:33:42;;;;;;;63.80;26.55;;;;;;;6.88;100.00;102324.59;6083006;19;20744;-73
2023/12/19 02:35:47;;;;;;;54.53;22.90;;;;;;;6.92;100.00;102325.47;6085200;19;20498;-73
2023/12/19 02:37:51;;;;;;;50.75;22.75;;;;;;;6.94;100.00;102324.59;6085552;19;20173;-73
2023/12/19 02:39:59;;;;;;;57.42;24.08;;;;;;;6.91;100.00;102329.81;6082199;19;20022;-73
2023/12/19 02:42:04;;;;;;;57.53;24.45;;;;;;;6.94;100.00;102329.81;6083825;19;20013;-73
2023/12/19 02:44:09;;;;;;;60.38;21.10;;;;;;;6.97;100.00;102321.09;6084194;19;20010;-72
2023/12/19 02:46:14;;;;;;;56.83;22.13;;;;;;;6.92;100.00;102305.41;6085062;19;20027;-70
2023/12/19 02:48:20;;;;;;;54.00;23.50;;;;;;;6.89;100.00;102305.44;6084742;19;20007;-70
2023/12/19 02:50:25;;;;;;;53.05;22.50;;;;;;;6.93;100.00;102296.72;6085566;19;20033;-69
2023/12/19 02:52:30;;;;;;;47.20;22.23;;;;;;;6.90;100.00;102301.97;6083734;19;20015;-71
2023/12/19 02:54:35;;;;;;;51.95;23.08;;;;;;;6.92;100.00;102297.56;6084943;19;20122;-70
2023/12/19 02:56:39;;;;;;;61.80;22.50;;;;;;;6.89;100.00;102283.66;6084977;19;20007;-71
2023/12/19 02:58:45;;;;;;;56.85;20.83;;;;;;;6.93;100.00;102298.47;6085402;19;20006;-73
2023/12/19 03:00:50;;;;;;;52.55;20.15;;;;;;;6.93;100.00;102281.03;6084057;19;20012;-73
2023/12/19 03:02:58;;;;;;;50.30;21.17;;;;;;;6.91;100.00;102280.16;6085750;19;20026;-70
2023/12/19 03:05:04;;;;;;;54.95;24.95;;;;;;;6.91;100.00;102280.16;6085024;19;20054;-70
2023/12/19 03:07:10;;;;;;;57.90;21.70;;;;;;;6.93;100.00;102283.66;6084200;19;20025;-72
2023/12/19 03:09:14;;;;;;;46.72;19.77;;;;;;;6.93;100.00;102283.66;6085450;19;20015;-73
2023/12/19 03:11:19;;;;;;;43.38;17.33;;;;;;;6.91;100.00;102277.56;6082306;19;20014;-71
2023/12/19 03:13:29;;;;;;;51.83;20.45;;;;;;;6.93;100.00;102267.09;6083513;19;20443;-71
2023/12/19 03:15:32;;;;;;;47.42;21.25;;;;;;;6.91;100.00;102261.88;6080644;19;20451;-71
2023/12/19 03:17:36;;;;;;;43.67;18.00;;;;;;;6.93;100.00;102244.47;6083234;19;20683;-71
2023/12/19 03:19:41;;;;;;;51.05;20.42;;;;;;;6.90;100.00;102246.19;6082876;19;20077;-71
2023/12/19 03:21:46;;;;;;;45.60;21.00;;;;;;;6.88;100.00;102243.59;6084129;19;20334;-72
2023/12/19 03:23:51;;;;;;;54.35;20.35;;;;;;;6.88;100.00;102245.34;6083129;19;20546;-71
2023/12/19 03:25:56;;;;;;;50.10;20.75;;;;;;;6.97;100.00;102240.06;6083814;19;20522;-72
2023/12/19 03:28:02;;;;;;;55.92;23.52;;;;;;;6.92;100.00;102241.84;6084038;19;20602;-70
2023/12/19 03:30:11;;;;;;;52.08;22.48;;;;;;;6.93;100.00;102238.38;6082255;19;20041;-73
2023/12/19 03:32:16;;;;;;;50.60;19.15;;;;;;;6.93;100.00;102239.22;6083461;19;20034;-72
2023/12/19 03:34:19;;;;;;;51.05;21.13;;;;;;;6.97;100.00;102243.56;6083927;19;20013;-71
2023/12/19 03:36:27;;;;;;;45.55;19.85;;;;;;;6.99;100.00;102240.94;6083243;19;20021;-71
2023/12/19 03:38:35;;;;;;;43.90;19.80;;;;;;;7.01;100.00;102227.00;6079929;19;20003;-71
2023/12/19 03:40:41;;;;;;;48.45;19.27;;;;;;;7.04;100.00;102226.13;6082754;19;20023;-71
2023/12/19 03:42:46;;;;;;;60.10;21.75;;;;;;;7.00;100.00;102206.97;6084940;19;20010;-72
2023/12/19 03:44:54;;;;;;;54.33;22.05;;;;;;;7.03;100.00;102198.25;6081180;19;20113;-73
2023/12/19 03:47:02;;;;;;;49.83;20.90;;;;;;;7.03;100.00;102188.66;6084190;19;20014;-72
2023/12/19 03:49:07;;;;;;;48.00;20.58;;;;;;;7.02;100.00;102189.53;6079680;19;20002;-74
2023/12/19 03:51:12;;;;;;;49.88;20.98;;;;;;;7.00;100.00;102188.69;6082660;19;20099;-73
2023/12/19 03:53:17;;;;;;;52.58;20.73;;;;;;;7.03;100.00;102190.41;6079200;19;20006;-73
2023/12/19 03:55:21;;;;;;;49.30;18.90;;;;;;;7.04;100.00;102173.84;6081155;19;20003;-72
2023/12/19 03:57:26;;;;;;;50.50;20.50;;;;;;;7.06;100.00;102182.56;6083307;19;20022;-72
2023/12/19 03:59:35;;;;;;;47.15;17.67;;;;;;;7.09;100.00;102177.31;6082189;19;19998;-73
2023/12/19 04:01:48;;;;;;;49.90;21.38;;;;;;;7.05;100.00;102162.50;6078206;19;19999;-72
2023/12/19 04:03:57;;;;;;;42.40;18.25;;;;;;;7.08;100.00;102166.84;6084448;19;20483;-72
2023/12/19 04:06:03;;;;;;;47.05;18.65;;;;;;;7.04;100.00;102174.72;6081915;19;20023;-73
2023/12/19 04:08:10;;;;;;;48.78;21.10;;;;;;;7.09;100.00;102169.47;6084184;19;20010;-72
2023/12/19 04:10:15;;;;;;;41.72;17.23;;;;;;;7.12;100.00;102179.03;6084819;19;20015;-72
2023/12/19 04:12:20;;;;;;;43.00;17.38;;;;;;;7.13;100.00;102168.56;6086104;19;20011;-72
2023/12/19 04:14:23;;;;;;;40.15;18.42;;;;;;;7.13;100.00;102176.41;6084801;19;20447;-72
2023/12/19 04:16:28;;;;;;;47.72;19.48;;;;;;;7.15;100.00;102171.19;6083422;19;20019;-73
2023/12/19 04:18:33;;;;;;;39.67;16.83;;;;;;;7.17;100.00;102174.66;6080393;19;20026;-74
2023/12/19 04:20:39;;;;;;;48.72;18.35;;;;;;;7.19;100.00;102186.00;6082556;19;20010;-73
2023/12/19 04:22:47;;;;;;;39.90;18.85;;;;;;;7.21;100.00;102163.31;6080303;19;20007;-73
2023/12/19 04:24:52;;;;;;;38.25;17.10;;;;;;;7.23;100.00;102166.78;6082396;19;20479;-74
2023/12/19 04:26:57;;;;;;;49.22;18.60;;;;;;;7.28;100.00;102162.41;6081453;19;20419;-73
2023/12/19 04:29:02;;;;;;;36.83;16.40;;;;;;;7.27;100.00;102163.28;6082800;19;20591;-74
2023/12/19 04:31:07;;;;;;;47.97;19.73;;;;;;;7.27;100.00;102155.44;6081311;19;20010;-71
2023/12/19 04:33:12;;;;;;;47.63;19.38;;;;;;;7.29;100.00;102150.19;6081939;19;20011;-72
2023/12/19 04:35:17;;;;;;;44.75;16.92;;;;;;;7.30;100.00;102151.94;6080598;19;20015;-73
2023/12/19 04:37:25;;;;;;;41.10;19.08;;;;;;;7.29;100.00;102143.19;6083440;19;20015;-73
2023/12/19 04:39:30;;;;;;;38.30;17.20;;;;;;;7.31;100.00;102145.81;6082153;19;20024;-72
2023/12/19 04:41:35;;;;;;;38.72;20.95;;;;;;;7.26;100.00;102141.47;6081454;19;20514;-74
2023/12/19 04:43:40;;;;;;;48.30;19.75;;;;;;;7.29;100.00;102137.97;6082761;19;20009;-73
2023/12/19 04:45:45;;;;;;;43.83;17.95;;;;;;;7.30;100.00;102134.50;6083009;19;20024;-70
2023/12/19 04:47:50;;;;;;;45.15;18.98;;;;;;;7.27;100.00;102139.75;6081234;19;20379;-75
2023/12/19 04:49:56;;;;;;;51.50;21.80;;;;;;;7.31;100.00;102151.91;6084838;19;20529;-72
2023/12/19 04:52:00;;;;;;;40.72;18.88;;;;;;;7.30;100.00;102139.72;6082598;19;20421;-72
2023/12/19 04:54:08;;;;;;;59.13;22.05;;;;;;;7.34;100.00;102137.94;6081741;19;20018;-73
2023/12/19 04:56:13;;;;;;;56.95;21.08;;;;;;;7.32;100.00;102137.97;6084528;19;20578;-73
2023/12/19 04:58:19;;;;;;;56.60;21.15;;;;;;;7.32;100.00;102132.75;6082700;19;20045;-74
2023/12/19 05:00:24;;;;;;;54.83;23.50;;;;;;;7.33;100.00;102137.09;6082047;19;20046;-73
2023/12/19 05:02:26;;;;;;;50.92;23.10;;;;;;;7.37;100.00;102130.09;6080478;19;20014;-74
2023/12/19 05:04:32;;;;;;;60.50;23.25;;;;;;;7.35;100.00;102118.78;6084125;19;20011;-73
2023/12/19 05:06:37;;;;;;;48.88;20.13;;;;;;;7.34;100.00;102114.41;6086118;19;20030;-72
2023/12/19 05:08:42;;;;;;;40.00;19.20;;;;;;;7.36;100.00;102121.38;6086838;19;20487;-72
2023/12/19 05:10:50;;;;;;;71.88;24.45;;;;;;;7.40;100.00;102119.63;6090161;19;20022;-71
2023/12/19 05:12:55;;;;;;;44.65;20.33;;;;;;;7.42;100.00;102123.09;6083791;19;20021;-71
2023/12/19 05:14:59;;;;;;;47.47;18.70;;;;;;;7.43;100.00;102104.78;6088023;19;20765;-74
2023/12/19 05:17:03;;;;;;;50.47;21.02;;;;;;;7.43;100.00;102115.25;6088199;19;20006;-74
2023/12/19 05:19:08;;;;;;;55.63;21.48;;;;;;;7.42;100.00;102118.72;6085879;19;20014;-71
2023/12/19 05:21:14;;;;;;;42.63;19.20;;;;;;;7.47;100.00;102105.59;6087038;19;20017;-71
2023/12/19 05:23:19;;;;;;;42.25;19.90;;;;;;;7.50;100.00;102126.50;6087999;19;20006;-74
2023/12/19 05:25:24;;;;;;;46.35;19.08;;;;;;;7.46;100.00;102123.06;6087686;19;20533;-72
2023/12/19 05:27:32;;;;;;;36.85;17.20;;;;;;;7.51;100.00;102114.31;6075006;19;20105;-75
2023/12/19 05:29:37;;;;;;;43.72;18.13;;;;;;;7.51;100.00;102120.41;6075536;19;20066;-73
2023/12/19 05:31:42;;;;;;;37.20;17.70;;;;;;;7.53;100.00;102112.53;6085301;19;20009;-71
2023/12/19 05:33:47;;;;;;;38.03;17.52;;;;;;;7.50;100.00;102116.03;6082496;19;20445;-71
2023/12/19 05:35:53;;;;;;;46.45;19.58;;;;;;;7.51;100.00;102101.25;6083147;19;20479;-71
2023/12/19 05:37:57;;;;;;;45.50;19.95;;;;;;;7.51;100.00;102104.72;6084930;19;20014;-72
2023/12/19 05:40:00;;;;;;;59.90;21.58;;;;;;;7.53;100.00;102107.31;6085633;19;20014;-75
2023/12/19 05:42:05;;;;;;;49.50;22.38;;;;;;;7.55;100.00;102100.31;6085579;19;20030;-72
2023/12/19 05:44:12;;;;;;;48.20;19.48;;;;;;;7.54;100.00;102096.00;6085750;19;20006;-73
2023/12/19 05:46:16;;;;;;;53.38;22.67;;;;;;;7.53;100.00;102099.47;6086743;19;20054;-72
2023/12/19 05:48:23;;;;;;;48.22;19.50;;;;;;;7.59;100.00;102091.59;6089337;19;20011;-72
2023/12/19 05:50:29;;;;;;;55.88;24.25;;;;;;;7.59;100.00;102081.13;6087641;19;20746;-73
2023/12/19 05:52:34;;;;;;;56.25;23.60;;;;;;;7.59;100.00;102088.97;6083448;19;20021;-73
2023/12/19 05:54:39;;;;;;;66.93;22.85;;;;;;;7.62;100.00;102081.09;6086513;19;20010;-72
2023/12/19 05:56:44;;;;;;;59.78;22.52;;;;;;;7.59;100.00;102068.03;6082653;19;20018;-74
2023/12/19 05:58:46;;;;;;;59.38;22.95;;;;;;;7.59;100.00;102073.28;6084881;19;20011;-74
2023/12/19 06:00:55;;;;;;;;;;;;;;;7.65;100.00;102073.22;6085874;19;20082;-74
2023/12/19 06:03:01;;;;;;;53.15;22.70;;;;;;;7.63;100.00;102072.34;6085739;19;19921;-73
2023/12/19 06:05:09;;;;;;;47.92;21.38;;;;;;;7.64;100.00;102077.59;6087956;19;20010;-73
2023/12/19 06:07:14;;;;;;;55.63;23.42;;;;;;;7.64;100.00;102068.88;6086415;19;20114;-72
2023/12/19 06:09:19;;;;;;;60.55;24.75;;;;;;;7.66;100.00;102061.84;6087414;19;20006;-72
2023/12/19 06:11:30;;;;;;;53.67;21.70;;;;;;;7.65;100.00;102068.84;6086605;19;20045;-75
2023/12/19 06:13:35;;;;;;;56.95;24.67;;;;;;;7.63;100.00;102060.13;6087812;19;20025;-75
2023/12/19 06:15:40;;;;;;;57.75;23.25;;;;;;;7.66;100.00;102065.38;6084678;19;20013;-75
2023/12/19 06:17:51;;;;;;;51.50;23.30;;;;;;;7.64;100.00;102071.50;6085530;19;20355;-72
2023/12/19 06:19:56;;;;;;;71.15;24.63;;;;;;;7.64;100.00;102066.25;6084085;19;20043;-73
2023/12/19 06:22:02;;;;;;;53.25;22.67;;;;;;;7.64;100.00;102066.25;6084479;19;20078;-72
2023/12/19 06:24:08;;;;;;;52.55;23.70;;;;;;;7.66;100.00;102054.91;6082813;19;20035;-71
2023/12/19 06:26:13;;;;;;;57.17;23.73;;;;;;;7.71;100.00;102060.06;6083408;19;20023;-73
2023/12/19 06:28:22;;;;;;;56.00;25.13;;;;;;;7.72;100.00;102056.59;6083877;19;20494;-72
2023/12/19 06:30:30;;;;;;;51.10;22.67;;;;;;;7.70;100.00;102050.50;6084139;19;20037;-73
2023/12/19 06:32:40;;;;;;;56.08;22.48;;;;;;;7.69;100.00;102049.63;6083433;19;20368;-74
2023/12/19 06:34:51;;;;;;;63.05;24.25;;;;;;;7.68;100.00;102042.66;6081506;19;20020;-74
2023/12/19 06:36:56;;;;;;;57.30;24.15;;;;;;;7.69;100.00;102043.53;6081928;19;20003;-72
2023/12/19 06:39:01;;;;;;;60.42;25.45;;;;;;;7.71;100.00;102041.75;6082734;19;20014;-71
2023/12/19 06:41:06;;;;;;;66.13;26.25;;;;;;;7.69;100.00;102025.22;6086761;19;20018;-72
2023/12/19 06:43:11;;;;;;;59.92;23.55;;;;;;;7.71;100.00;102033.91;6084428;19;20470;-71
2023/12/19 06:45:18;;;;;;;67.38;23.67;;;;;;;7.73;100.00;102032.16;6085309;19;20458;-72
2023/12/19 06:47:24;;;;;;;72.93;25.48;;;;;;;7.75;100.00;102030.38;6085952;19;20078;-72
2023/12/19 06:49:30;;;;;;;68.95;25.83;;;;;;;7.75;100.00;102026.91;6083834;19;20014;-75
2023/12/19 06:51:37;;;;;;;61.30;25.55;;;;;;;7.77;100.00;102028.63;6084351;19;20002;-74
2023/12/19 06:53:40;;;;;;;70.32;26.13;;;;;;;7.78;100.00;102032.97;6083958;19;20105;-71
2023/12/19 06:55:46;;;;;;;60.35;24.55;;;;;;;7.81;100.00;102030.31;6083097;19;20623;-71
2023/12/19 06:57:48;;;;;;;70.65;27.40;;;;;;;7.81;100.00;102048.63;6082721;19;20066;-72
2023/12/19 06:59:53;;;;;;;72.07;26.48;;;;;;;7.84;100.00;102045.13;6084689;19;20534;-73
2023/12/19 07:01:58;;;;;;;73.63;28.60;;;;;;;7.80;100.00;102040.81;6082277;19;20010;-69
2023/12/19 07:04:03;;;;;;;75.88;25.60;;;;;;;7.84;100.00;102040.75;6083895;19;20042;-70
2023/12/19 07:06:08;;;;;;;80.15;30.13;;;;;;;7.85;100.00;102039.88;6081764;19;20007;-70
2023/12/19 07:08:16;;;;;;;79.40;28.20;;;;;;;7.83;100.00;102035.56;6078257;19;20368;-72
2023/12/19 07:10:21;;;;;;;68.40;28.35;;;;;;;7.81;100.00;102040.78;6082257;19;20002;-75
2023/12/19 07:12:26;;;;;;;70.28;26.90;;;;;;;7.82;100.00;102033.78;6086259;19;20014;-75
2023/12/19 07:14:31;;;;;;;76.10;27.75;;;;;;;7.80;100.00;102031.22;6087260;19;20449;-75
2023/12/19 07:16:36;;;;;;;58.25;25.30;;;;;;;7.78;100.00;102017.28;6086547;19;20015;-74
2023/12/19 07:18:43;;;;;;;62.47;24.80;;;;;;;7.76;100.00;102019.03;6086874;19;20010;-75
2023/12/19 07:20:48;;;;;;;59.13;25.50;;;;;;;7.76;100.00;102024.25;6086470;19;20022;-75
2023/12/19 07:22:52;;;;;;;54.25;26.10;;;;;;;7.77;100.00;102014.69;6085064;19;20051;-70
2023/12/19 07:25:00;;;;;;;61.10;24.42;;;;;;;7.75;100.00;102012.06;6082590;19;20006;-70
2023/12/19 07:27:05;;;;;;;52.28;22.33;;;;;;;7.75;100.00;102006.84;6080866;19;20006;-71
2023/12/19 07:29:10;;;;;;;60.53;24.35;;;;;;;7.75;100.00;102021.69;6085400;19;20014;-69
2023/12/19 07:31:19;;;;;;;44.40;20.60;;;;;;;7.73;100.00;102012.97;6083339;19;20470;-70
2023/12/19 07:33:25;;;;;;;50.17;19.08;;;;;;;7.71;100.00;102010.34;6084625;19;20498;-70
2023/12/19 07:35:30;;;;;;;49.85;20.58;;;;;;;7.70;100.00;102014.72;6080701;19;20018;-71
2023/12/19 07:37:38;;;;;;;52.45;21.02;;;;;;;7.70;100.00;102008.63;6082625;19;20014;-74
2023/12/19 07:39:43;;;;;;;44.50;20.38;;;;;;;7.68;100.00;101998.16;6083332;19;20071;-69
2023/12/19 07:41:50;;;;;;;51.40;21.38;;;;;;;7.69;100.00;102006.91;6082958;19;20093;-74
2023/12/19 07:43:55;;;;;;;55.92;22.52;;;;;;;7.69;100.00;102006.91;6085579;19;20002;-73
2023/12/19 07:46:00;;;;;;;53.65;22.08;;;;;;;7.71;100.00;102012.97;6078891;19;20070;-71
2023/12/19 07:48:06;;;;;;;58.85;23.85;;;;;;;7.69;100.00;102012.16;6082853;19;20554;-72
2023/12/19 07:50:13;;;;;;;49.28;23.20;;;;;;;7.69;100.00;102015.63;6082331;19;20360;-72
2023/12/19 07:52:20;;;;;;;55.85;22.88;;;;;;;7.65;100.00;102015.66;6078018;19;20003;-70
2023/12/19 07:54:25;;;;;;;47.65;21.30;;;;;;;7.73;100.00;102007.75;6085482;19;20080;-73
2023/12/19 07:56:30;;;;;;;55.60;24.17;;;;;;;7.72;100.00;101998.16;6082535;19;20015;-70
2023/12/19 07:58:38;;;;;;;62.85;25.42;;;;;;;7.75;100.00;102000.75;6078596;19;20379;-72
2023/12/19 08:00:43;;;;;;;61.03;24.55;;;;;;;7.75;100.00;101996.38;6081390;19;20018;-70
2023/12/19 08:02:49;;;;;;;58.13;24.40;;;;;;;7.75;100.00;101993.75;6077454;19;20049;-73
2023/12/19 08:04:54;;;;;;;51.55;21.42;;;;;;;7.75;100.00;102001.59;6084131;19;20522;-73
2023/12/19 08:06:57;;;;;;;46.25;23.13;;;;;;;7.75;100.00;101996.38;6085434;19;20441;-73
2023/12/19 08:09:02;;;;;;;75.47;27.50;;;;;;;7.72;100.00;101992.94;6083430;19;20078;-70
2023/12/19 08:11:08;;;;;;;58.13;22.00;;;;;;;7.72;100.00;101996.41;6083864;19;20455;-70
2023/12/19 08:13:13;;;;;;;55.30;22.65;;;;;;;7.74;100.00;102004.22;6082730;19;20034;-70
2023/12/19 08:15:21;;;;;;;56.35;22.05;;;;;;;7.73;100.00;102002.50;6079920;19;20019;-72
2023/12/19 08:17:26;;;;;;;51.00;20.95;;;;;;;7.75;100.00;101990.28;6070003;19;20484;-72
2023/12/19 08:19:31;;;;;;;57.92;22.00;;;;;;;7.77;100.00;101988.53;6067781;19;20479;-72
2023/12/19 08:21:36;;;;;;;52.03;22.75;;;;;;;7.75;100.00;101985.03;6065920;19;20070;-74
2023/12/19 08:23:42;;;;;;;56.17;21.00;;;;;;;7.79;100.00;101984.13;6066494;19;20015;-73
2023/12/19 08:25:50;;;;;;;42.28;19.65;;;;;;;7.74;100.00;101984.19;6083252;19;20007;-74
2023/12/19 08:27:55;;;;;;;44.22;20.67;;;;;;;7.77;100.00;101983.28;6080211;19;20010;-74
2023/12/19 08:30:00;;;;;;;45.95;21.33;;;;;;;7.75;100.00;101985.03;6083029;19;20010;-73
2023/12/19 08:32:08;;;;;;;51.38;20.88;;;;;;;7.80;100.00;101983.25;6082942;19;20031;-72
2023/12/19 08:34:13;;;;;;;44.70;22.30;;;;;;;7.80;100.00;101976.25;6083377;19;20033;-73
2023/12/19 08:36:18;;;;;;;46.33;19.17;;;;;;;7.77;100.00;101976.31;6083473;19;20014;-71
2023/12/19 08:38:38;;;;;;;47.40;21.48;;;;;;;7.81;100.00;101985.84;5977852;19;2004996;-72
2023/12/19 08:40:43;;;;;;;43.35;18.52;;;;;;;7.82;100.00;101961.41;6080117;19;20518;-71
2023/12/19 08:42:48;;;;;;;43.08;20.00;;;;;;;7.85;100.00;101974.47;6084470;19;20010;-71
2023/12/19 08:44:55;;;;;;;43.33;20.90;;;;;;;7.81;100.00;101977.13;6081993;19;20019;-73
2023/12/19 08:47:00;;;;;;;45.58;17.48;;;;;;;7.84;100.00;101964.84;6080338;19;20611;-72
2023/12/19 08:49:08;;;;;;;37.60;17.77;;;;;;;7.82;100.00;101976.22;6084587;19;20485;-72
2023/12/19 08:51:13;;;;;;;37.17;17.13;;;;;;;7.85;100.00;101956.16;6082520;19;20027;-71
2023/12/19 08:53:19;;;;;;;45.30;18.95;;;;;;;7.82;100.00;101961.41;6082082;19;20007;-72
2023/12/19 08:55:26;;;;;;;43.30;19.10;;;;;;;7.88;100.00;101963.97;6084105;19;20354;-72
2023/12/19 08:57:31;;;;;;;47.50;20.48;;;;;;;7.84;100.00;101957.00;6083274;19;20026;-72
2023/12/19 08:59:36;;;;;;;50.30;19.00;;;;;;;7.86;100.00;101959.63;6078203;19;20383;-72
2023/12/19 09:01:41;;;;;;;36.63;17.40;;;;;;;7.88;100.00;101955.25;6080101;19;20014;-71
2023/12/19 09:03:46;;;;;;;39.75;17.58;;;;;;;7.88;100.00;101945.63;6082641;19;20604;-73
2023/12/19 09:05:54;;;;;;;34.15;16.52;;;;;;;7.88;100.00;101958.72;6083591;19;20332;-72
2023/12/19 09:07:56;;;;;;;33.55;16.63;;;;;;;7.89;100.00;101946.50;6082537;19;20014;-71
2023/12/19 09:10:01;;;;;;;38.40;18.42;;;;;;;7.91;100.00;101963.06;6081975;19;20081;-71
2023/12/19 09:12:07;;;;;;;42.47;18.70;;;;;;;7.95;100.00;101958.63;6082901;19;20020;-72
2023/12/19 09:14:12;;;;;;;46.55;17.73;;;;;;;7.91;100.00;101956.06;6081044;19;20038;-73
2023/12/19 09:16:17;;;;;;;39.58;18.35;;;;;;;7.94;100.00;101955.16;6082242;19;20038;-71
2023/12/19 09:18:24;;;;;;;37.17;19.55;;;;;;;7.89;100.00;101947.34;6079990;19;20302;-72
2023/12/19 09:20:29;;;;;;;40.85;18.63;;;;;;;7.91;100.00;101944.75;6081412;19;20089;-71
2023/12/19 09:22:37;;;;;;;42.92;19.33;;;;;;;7.92;100.00;101941.22;6077938;19;20087;-72
2023/12/19 09:24:42;;;;;;;36.70;16.70;;;;;;;7.95;100.00;101948.16;6080913;19;20527;-74
2023/12/19 09:26:48;;;;;;;35.15;17.08;;;;;;;7.95;100.00;101929.84;6080277;19;20011;-73
2023/12/19 09:28:55;;;;;;;38.70;16.88;;;;;;;7.95;100.00;101935.94;6078368;19;20187;-72
2023/12/19 09:31:01;;;;;;;34.97;17.10;;;;;;;7.94;100.00;101923.75;6077923;19;20011;-72